Hovedside
METAR-TAF:

METAR-TAF

Lufthavner :

Damaskus, Syria

breddegrad: 33-25N, lengdegrad: 036-31E, høyde over havet: 608 m

Gjeldene værobservasjon

Denne rapporten ble laget for 47 minutter siden, klokken 19:00 UTC
Vind 14 kt fra Sør-sørvest
Temperatur 25°C
Luftfuktighet 57%
Trykk 1004 hPa
Sikt 10 km eller mer
ingen skyer under 1500 m og ingen bygeskyer

METAR: OSDI 131900Z 21014KT CAVOK 25/16 Q1004

Tid: 22:47 (19:47 UTC)

Varsel

Denne rapporten ble laget for 4 timer og 47 minutter siden, klokken 15:00 UTC
Varsel gyldig fra 13. klokken 18 UTC til 14. klokken 24 UTC
Vind 10 kt fra Sørvest
Sikt 10 km eller mer
ingen skyer under 1500 m og ingen bygeskyer

TAF: OSDI 131500Z 1318/1424 22010KT CAVOK

Værobservasjoner og værvarsel for over 4000 flyplasser (METAR- og TAF-rapporter).

Tilgjengelige stasjoner er representert av de røde og gule prikkene på kartet.

Hold musepekeren over prikken for å se navnet på stasjonen.

Klikk så for å se værobservasjoner og -varsler.

For å forandre kartet kan du klikke på den grønne knappen med svart kryss for å zoome inn, på den grønne knappen med strek for å zoome ut, eller på de grønne pilene for å se tilstøtende kart.


METAR-TAF: